createdAt,value
2017-11-14T00:10:43.983Z,0.0
2017-11-14T00:20:57.723Z,0.0
2017-11-14T00:31:11.204Z,0.0
2017-11-14T00:41:25.656Z,0.0
2017-11-14T01:02:33.648Z,0.0
2017-11-14T01:13:18.837Z,0.0
2017-11-14T01:23:32.373Z,0.0
2017-11-14T01:33:43.589Z,0.0
2017-11-14T01:43:57.796Z,0.0
2017-11-14T01:55:35.197Z,0.0
2017-11-14T02:05:49.516Z,0.0
2017-11-14T02:16:36.225Z,0.0
2017-11-14T02:26:49.830Z,0.0
2017-11-14T02:37:36.483Z,0.0
2017-11-14T02:47:51.075Z,0.0
2017-11-14T02:58:43.555Z,0.0
2017-11-14T03:11:01.321Z,0.0
2017-11-14T03:21:46.982Z,0.0
2017-11-14T03:32:01.144Z,0.0
2017-11-14T03:42:13.016Z,0.0
2017-11-14T03:52:26.025Z,0.0
2017-11-14T04:03:07.308Z,0.0
2017-11-14T04:13:22.904Z,0.0
2017-11-14T04:23:36.529Z,0.0
2017-11-14T04:33:50.017Z,0.0
2017-11-14T04:44:03.940Z,0.0
2017-11-14T04:54:17.497Z,0.0
2017-11-14T05:04:28.602Z,0.0
2017-11-14T05:15:13.579Z,0.0
2017-11-14T05:26:15.851Z,0.0
2017-11-14T05:36:42.233Z,0.0
2017-11-14T05:47:35.646Z,0.0
2017-11-14T05:57:49.291Z,0.0
2017-11-14T06:20:14.017Z,0.0
2017-11-14T06:31:53.037Z,0.0
2017-11-14T06:42:06.867Z,0.0
2017-11-14T06:52:21.482Z,5.0
2017-11-14T07:02:35.801Z,25.0
2017-11-14T07:12:50.805Z,20.0
2017-11-14T07:23:05.957Z,50.0
2017-11-14T07:33:45.086Z,65.0
2017-11-14T07:45:03.118Z,45.0
2017-11-14T07:55:17.649Z,55.0
2017-11-14T08:05:32.122Z,60.0
2017-11-14T08:16:06.062Z,40.0
2017-11-14T08:28:36.564Z,60.0
2017-11-14T08:39:23.321Z,95.0
2017-11-14T08:49:39.605Z,90.0
2017-11-14T09:00:25.459Z,85.0
2017-11-14T09:10:45.015Z,170.0
2017-11-14T09:21:34.002Z,125.0
2017-11-14T09:32:00.806Z,135.0
2017-11-14T09:42:14.055Z,120.0
2017-11-14T09:53:16.080Z,245.0
2017-11-14T10:03:28.058Z,290.0
2017-11-14T10:14:55.390Z,480.0
2017-11-14T10:25:44.138Z,545.0
2017-11-14T10:36:27.886Z,1665.0
2017-11-14T10:47:26.355Z,815.0
2017-11-14T10:57:40.090Z,245.0
2017-11-14T11:07:52.835Z,200.0
2017-11-14T11:18:07.296Z,365.0
2017-11-14T11:28:21.467Z,195.0
2017-11-14T11:38:36.006Z,220.0
2017-11-14T11:49:25.247Z,260.0
2017-11-14T12:00:14.067Z,310.0
2017-11-14T12:10:59.205Z,140.0
2017-11-14T12:21:10.312Z,125.0
2017-11-14T12:32:28.672Z,120.0
2017-11-14T12:42:43.882Z,65.0
2017-11-14T12:52:58.858Z,85.0
2017-11-14T13:03:13.698Z,65.0
2017-11-14T13:13:27.013Z,60.0
2017-11-14T13:23:39.756Z,55.0
2017-11-14T13:34:25.079Z,75.0
2017-11-14T13:49:51.925Z,55.0
2017-11-14T14:00:37.186Z,55.0
2017-11-14T14:11:53.725Z,45.0
2017-11-14T14:22:08.393Z,30.0
2017-11-14T14:32:26.477Z,35.0
2017-11-14T14:42:41.792Z,25.0
2017-11-14T14:53:31.795Z,25.0
2017-11-14T15:03:48.999Z,10.0
2017-11-14T15:14:34.373Z,5.0
2017-11-14T15:25:24.488Z,0.0
2017-11-14T15:35:38.277Z,0.0
2017-11-14T15:45:49.875Z,0.0
2017-11-14T15:56:03.681Z,0.0
2017-11-14T16:07:10.925Z,0.0
2017-11-14T16:17:26.252Z,0.0
2017-11-14T16:28:45.955Z,0.0
2017-11-14T16:39:31.119Z,0.0
2017-11-14T16:49:42.119Z,0.0
2017-11-14T16:59:53.849Z,0.0
2017-11-14T17:10:06.647Z,0.0
2017-11-14T17:20:53.252Z,0.0
2017-11-14T17:31:43.410Z,0.0
2017-11-14T17:41:55.275Z,0.0
2017-11-14T17:52:10.361Z,0.0
2017-11-14T18:02:27.387Z,0.0
2017-11-14T18:12:41.752Z,0.0
2017-11-14T18:22:53.801Z,0.0
2017-11-14T18:33:08.234Z,0.0
2017-11-14T18:43:22.222Z,0.0
2017-11-14T18:53:33.429Z,0.0
2017-11-14T19:03:48.320Z,0.0
2017-11-14T19:14:36.926Z,0.0
2017-11-14T19:25:22.312Z,0.0
2017-11-14T19:35:36.737Z,0.0
2017-11-14T19:46:22.729Z,0.0
2017-11-14T19:56:38.330Z,0.0
2017-11-14T20:06:54.075Z,0.0
2017-11-14T20:17:08.788Z,0.0
2017-11-14T20:27:23.994Z,0.0
2017-11-14T20:38:09.431Z,0.0
2017-11-14T20:48:55.078Z,0.0
2017-11-14T20:59:44.375Z,0.0
2017-11-14T21:10:04.767Z,0.0
2017-11-14T21:21:44.196Z,0.0
2017-11-14T21:32:00.494Z,0.0
2017-11-14T21:42:16.481Z,0.0
2017-11-14T21:52:36.700Z,0.0
2017-11-14T22:03:22.202Z,0.0
2017-11-14T22:13:36.292Z,0.0
2017-11-14T22:23:47.838Z,0.0
2017-11-14T22:34:33.719Z,0.0
2017-11-14T22:44:45.555Z,0.0
2017-11-14T22:55:00.563Z,0.0
2017-11-14T23:05:17.920Z,0.0
2017-11-14T23:15:31.419Z,0.0
2017-11-14T23:25:42.770Z,0.0
2017-11-14T23:35:56.252Z,0.0
2017-11-14T23:46:12.445Z,0.0
2017-11-14T23:56:26.425Z,0.0
